Time;durP1;ratioP1;P1;durP2;ratioP2;P2;SDS_P1;SDS_P2;PMS_P1;PMS_P2;Temp;Humidity;BMP_temperature;BMP_pressure;BME280_temperature;BME280_humidity;BME280_pressure;Samples;Min_cycle;Max_cycle;Signal;HPM_P1;HPM_P2
2023/01/05 00:01:46;;;;;;;14.27;6.65;;;;;;;7.39;77.41;98112.78;4995703;28;20031;-69
2023/01/05 00:04:12;;;;;;;16.90;8.60;;;;;;;7.42;77.34;98116.84;4976727;28;20031;-68
2023/01/05 00:06:38;;;;;;;23.70;11.55;;;;;;;7.42;77.46;98123.13;4967392;28;20122;-69
2023/01/05 00:09:05;;;;;;;7.30;4.70;;;;;;;7.45;77.67;98110.81;4971962;28;20049;-69
2023/01/05 00:22:38;;;;;;;7.13;4.43;;;;;;;7.60;77.09;98077.13;4967662;28;20053;-68
2023/01/05 00:25:07;;;;;;;7.00;3.97;;;;;;;7.65;77.29;98073.56;4966323;28;20594;-69
2023/01/05 00:27:33;;;;;;;11.27;6.80;;;;;;;7.65;76.73;98068.91;4967040;28;20392;-69
2023/01/05 00:29:59;;;;;;;15.45;8.02;;;;;;;7.67;77.32;98058.50;4973808;28;20105;-69
2023/01/05 00:32:25;;;;;;;13.23;7.22;;;;;;;7.69;77.39;98072.69;4966799;28;20086;-69
2023/01/05 00:34:54;;;;;;;10.80;5.03;;;;;;;7.68;77.02;98079.25;4967332;28;20182;-69
2023/01/05 00:37:24;;;;;;;10.90;4.67;;;;;;;7.70;77.25;98059.88;4966960;28;20559;-69
2023/01/05 00:39:50;;;;;;;7.10;4.25;;;;;;;7.71;77.23;98053.31;4967333;28;20362;-69
2023/01/05 00:42:16;;;;;;;11.63;5.88;;;;;;;7.72;77.37;98044.03;4965194;28;20118;-68
2023/01/05 00:44:41;;;;;;;9.23;5.00;;;;;;;7.71;77.16;98045.91;4965309;28;20035;-68
2023/01/05 00:47:06;;;;;;;13.52;6.88;;;;;;;7.71;77.37;98045.91;4972446;28;20034;-68
2023/01/05 00:49:32;;;;;;;7.32;4.50;;;;;;;7.71;77.36;98048.66;4975662;28;20035;-69
2023/01/05 00:51:57;;;;;;;10.90;5.25;;;;;;;7.71;77.49;98037.72;4967430;28;20042;-69
2023/01/05 00:54:22;;;;;;;7.05;3.92;;;;;;;7.72;77.24;98053.00;4968067;28;20443;-69
2023/01/05 00:56:48;;;;;;;11.55;6.30;;;;;;;7.73;77.30;98048.38;4968821;28;20438;-69
2023/01/05 00:59:15;;;;;;;15.32;6.85;;;;;;;7.77;77.57;98048.59;4969154;28;20031;-69
2023/01/05 01:01:41;;;;;;;13.40;6.55;;;;;;;7.77;77.66;98040.41;4970843;28;20035;-69
2023/01/05 01:04:06;;;;;;;18.25;7.57;;;;;;;7.78;77.43;98040.13;4976084;28;20113;-69
2023/01/05 01:06:31;;;;;;;5.25;3.80;;;;;;;7.80;77.03;98031.66;4969859;28;20085;-69
2023/01/05 01:08:57;;;;;;;4.22;3.22;;;;;;;7.81;77.30;98025.88;4998965;28;20031;-69
2023/01/05 01:11:23;;;;;;;4.10;3.17;;;;;;;7.85;77.09;98026.94;4985543;28;20026;-69
2023/01/05 01:13:48;;;;;;;3.85;2.70;;;;;;;7.87;76.98;98027.47;4969899;28;20539;-68
2023/01/05 01:16:15;;;;;;;5.93;3.70;;;;;;;7.90;77.18;98024.16;4975847;28;20368;-68
2023/01/05 01:18:41;;;;;;;7.38;4.00;;;;;;;7.95;76.80;98039.66;4975198;28;20024;-69
2023/01/05 01:21:07;;;;;;;7.07;4.10;;;;;;;7.96;77.39;98022.19;4976388;28;20034;-68
2023/01/05 01:23:38;;;;;;;4.10;2.60;;;;;;;8.01;77.14;98030.31;4974967;28;20035;-68
2023/01/05 01:26:09;;;;;;;8.88;4.68;;;;;;;8.02;76.96;97999.19;4973015;28;20183;-68
2023/01/05 01:28:35;;;;;;;6.95;3.88;;;;;;;8.06;76.57;97996.69;4967692;28;20019;-69
2023/01/05 01:31:01;;;;;;;8.13;4.10;;;;;;;8.09;76.92;97993.38;4968072;28;20026;-69
2023/01/05 01:33:27;;;;;;;6.28;3.60;;;;;;;8.13;76.76;97988.97;4968791;28;20092;-69
2023/01/05 01:35:53;;;;;;;11.73;5.43;;;;;;;8.14;76.48;97981.56;4968830;28;20033;-69
2023/01/05 01:38:18;;;;;;;18.67;7.68;;;;;;;8.15;76.85;97967.59;4968682;28;20027;-69
2023/01/05 01:40:46;;;;;;;15.25;6.53;;;;;;;8.17;76.74;97970.88;4968588;28;20034;-68
2023/01/05 01:43:17;;;;;;;8.65;4.43;;;;;;;8.19;76.41;97967.84;4968674;28;20539;-69
2023/01/05 01:45:43;;;;;;;5.35;3.33;;;;;;;8.20;76.52;97961.28;4968335;28;20062;-69
2023/01/05 01:48:15;;;;;;;4.63;2.50;;;;;;;8.23;76.24;97951.69;4968398;28;20062;-68
2023/01/05 01:50:49;;;;;;;3.15;2.33;;;;;;;8.24;76.62;97954.13;4968397;28;20061;-68
2023/01/05 01:53:25;;;;;;;5.28;3.13;;;;;;;8.26;76.51;97971.03;4968088;28;20031;-69
2023/01/05 01:55:52;;;;;;;5.10;3.10;;;;;;;8.29;76.21;97954.06;4967615;28;20121;-69
2023/01/05 01:58:20;;;;;;;8.65;4.35;;;;;;;8.31;75.99;97956.50;4966846;28;20110;-69
2023/01/05 02:00:46;;;;;;;4.55;3.13;;;;;;;8.32;76.48;97955.38;4981099;28;20044;-69
2023/01/05 02:03:11;;;;;;;6.60;3.60;;;;;;;8.33;76.11;97944.19;4967331;28;20440;-69
2023/01/05 02:05:37;;;;;;;8.10;4.25;;;;;;;8.34;76.19;97948.53;4967666;28;20805;-69
2023/01/05 02:08:09;;;;;;;6.57;3.17;;;;;;;8.37;76.36;97933.47;4968266;28;20063;-69
2023/01/05 02:11:22;;;;;;;5.93;3.17;;;;;;;8.38;75.71;97928.78;4967799;28;20027;-68
2023/01/05 02:14:19;;;;;;;5.43;3.03;;;;;;;8.37;76.06;97908.88;4973424;28;20038;-69
2023/01/05 02:16:53;;;;;;;8.98;4.28;;;;;;;8.37;76.03;97919.81;4967946;28;20022;-69
2023/01/05 02:19:43;;;;;;;11.50;5.22;;;;;;;8.37;76.14;97913.50;4965289;28;20077;-68
2023/01/05 02:22:21;;;;;;;11.43;5.15;;;;;;;8.38;76.06;97920.59;4967451;28;20027;-69
2023/01/05 02:25:10;;;;;;;9.45;4.55;;;;;;;8.37;76.02;97910.78;4967337;28;20391;-69
2023/01/05 02:27:41;;;;;;;3.75;2.55;;;;;;;8.39;75.89;97908.56;4966368;28;20077;-69
2023/01/05 02:30:43;;;;;;;3.88;2.20;;;;;;;8.38;76.58;97909.66;4966698;28;20026;-69
2023/01/05 02:33:26;;;;;;;4.55;2.60;;;;;;;8.38;75.88;97901.47;4994187;28;20030;-69
2023/01/05 02:35:57;;;;;;;4.47;2.22;;;;;;;8.38;76.50;97894.09;4964547;28;20114;-69
2023/01/05 02:38:33;;;;;;;5.63;2.83;;;;;;;8.38;75.97;97898.75;4968136;28;20038;-69
2023/01/05 02:41:07;;;;;;;5.72;3.10;;;;;;;8.40;75.76;97899.25;4964737;28;20030;-68
2023/01/05 02:43:33;;;;;;;3.85;2.42;;;;;;;8.41;76.18;97889.94;4965517;28;20035;-69
2023/01/05 02:45:58;;;;;;;5.68;2.97;;;;;;;8.43;75.82;97896.75;4966879;28;20031;-69
2023/01/05 02:48:24;;;;;;;4.72;2.42;;;;;;;8.43;75.91;97890.47;4967315;28;20022;-69
2023/01/05 02:51:00;;;;;;;4.50;2.38;;;;;;;8.45;75.86;97886.34;4984247;28;20087;-69
2023/01/05 02:53:31;;;;;;;3.65;2.30;;;;;;;8.50;75.68;97885.47;5003117;28;20019;-69
2023/01/05 02:56:05;;;;;;;2.83;2.00;;;;;;;8.49;75.70;97879.22;4963532;28;20096;-69
2023/01/05 02:58:40;;;;;;;6.55;4.25;;;;;;;8.52;75.67;97880.53;4964273;28;20033;-69
2023/01/05 03:01:14;;;;;;;11.73;6.05;;;;;;;8.53;75.58;97878.63;4964580;28;20027;-69
2023/01/05 03:03:59;;;;;;;6.07;3.20;;;;;;;8.54;75.96;97882.97;4965760;28;20023;-69
2023/01/05 03:06:32;;;;;;;7.80;4.72;;;;;;;8.55;75.11;97879.94;4967082;28;20041;-69
2023/01/05 03:09:01;;;;;;;3.40;2.53;;;;;;;8.54;75.56;97878.31;4967307;28;20038;-68
2023/01/05 03:14:49;;;;;;;1.92;1.73;;;;;;;8.60;75.23;97873.56;4965394;28;20203;-68
2023/01/05 03:17:24;;;;;;;2.33;1.80;;;;;;;8.61;75.05;97875.19;4967136;28;20069;-68
2023/01/05 03:19:50;;;;;;;2.63;2.00;;;;;;;8.62;75.42;97876.81;4985440;28;20403;-69
2023/01/05 03:36:38;;;;;;;4.80;2.88;;;;;;;8.71;74.40;97869.56;4966293;28;20049;-69
2023/01/05 03:39:05;;;;;;;3.92;2.75;;;;;;;8.72;74.50;97857.53;4982974;28;20045;-68
2023/01/05 03:41:31;;;;;;;3.70;2.38;;;;;;;8.73;74.79;97847.41;4966447;28;20023;-68
2023/01/05 03:43:57;;;;;;;8.85;5.13;;;;;;;8.75;74.46;97858.88;4967896;28;20352;-69
2023/01/05 03:46:22;;;;;;;3.03;2.15;;;;;;;8.75;74.21;97858.88;4966614;28;20092;-68
2023/01/05 03:48:48;;;;;;;2.13;1.90;;;;;;;8.75;74.48;97846.00;4967294;28;20025;-68
2023/01/05 03:51:15;;;;;;;2.85;2.05;;;;;;;8.76;74.53;97853.09;4966923;28;20039;-68
2023/01/05 03:53:41;;;;;;;2.90;1.63;;;;;;;8.77;74.41;97860.19;4966666;28;20035;-68
2023/01/05 03:56:06;;;;;;;3.28;2.20;;;;;;;8.76;74.89;97844.88;4965144;28;20123;-69
2023/01/05 03:58:32;;;;;;;3.25;2.20;;;;;;;8.75;74.46;97847.94;4966938;28;20035;-68
2023/01/05 04:00:57;;;;;;;2.20;1.70;;;;;;;8.72;74.39;97854.00;4966547;28;20042;-69
2023/01/05 04:03:23;;;;;;;3.38;2.10;;;;;;;8.69;74.84;97838.19;4966709;28;20035;-69
2023/01/05 04:05:48;;;;;;;2.95;2.20;;;;;;;8.66;74.88;97855.97;4966720;28;20492;-69
2023/01/05 04:08:13;;;;;;;4.25;1.75;;;;;;;8.63;75.56;97849.19;4982570;28;20109;-69
2023/01/05 04:10:39;;;;;;;2.53;1.70;;;;;;;8.64;75.40;97859.03;4971412;28;20026;-69
2023/01/05 04:13:04;;;;;;;2.40;1.58;;;;;;;8.61;75.38;97851.41;4983035;28;20027;-69
2023/01/05 04:15:30;;;;;;;2.88;2.08;;;;;;;8.59;75.82;97850.91;4965962;28;20455;-69
2023/01/05 04:17:55;;;;;;;3.42;1.73;;;;;;;8.60;75.73;97848.97;4966447;28;20023;-69
2023/01/05 04:20:20;;;;;;;3.88;2.92;;;;;;;8.58;75.13;97837.53;4966624;28;20031;-70
2023/01/05 04:22:46;;;;;;;3.25;2.50;;;;;;;8.58;75.27;97832.06;4967450;28;20026;-69
2023/01/05 04:25:11;;;;;;;3.67;1.80;;;;;;;8.58;75.31;97843.81;4966957;28;20238;-69
2023/01/05 04:27:37;;;;;;;2.00;1.52;;;;;;;8.56;76.12;97828.84;4969658;28;20540;-69
2023/01/05 04:30:03;;;;;;;3.00;1.60;;;;;;;8.57;75.65;97844.09;5020979;28;20155;-69
2023/01/05 04:32:28;;;;;;;1.90;1.42;;;;;;;8.57;75.68;97835.91;4969759;28;20084;-70
2023/01/05 04:34:54;;;;;;;2.25;1.50;;;;;;;8.58;75.87;97843.81;4968688;28;20113;-69
2023/01/05 04:37:19;;;;;;;2.60;1.48;;;;;;;8.60;75.63;97843.50;4970678;28;20030;-69
2023/01/05 04:39:45;;;;;;;2.83;1.48;;;;;;;8.62;75.78;97835.81;4968893;28;20456;-70
2023/01/05 04:42:10;;;;;;;1.60;1.30;;;;;;;8.63;75.47;97835.53;4968638;28;20019;-69
2023/01/05 04:44:35;;;;;;;2.30;1.38;;;;;;;8.64;75.43;97841.78;4970203;28;20030;-68
2023/01/05 04:47:01;;;;;;;1.92;1.35;;;;;;;8.64;75.58;97836.34;4969569;28;20415;-69
2023/01/05 04:49:26;;;;;;;2.95;1.73;;;;;;;8.66;76.08;97836.84;4969457;28;20038;-69
2023/01/05 04:51:51;;;;;;;1.98;1.10;;;;;;;8.67;75.93;97830.28;4969672;28;20711;-69
2023/01/05 04:54:17;;;;;;;2.05;1.40;;;;;;;8.70;75.46;97840.59;4969877;28;20051;-69
2023/01/05 04:56:42;;;;;;;2.05;1.20;;;;;;;8.70;75.55;97823.41;4969331;28;20068;-69
2023/01/05 04:59:08;;;;;;;2.35;1.40;;;;;;;8.71;75.82;97814.09;4969673;28;20100;-69
2023/01/05 05:01:34;;;;;;;3.08;1.33;;;;;;;8.74;76.12;97817.03;5017098;28;20096;-70
2023/01/05 05:03:59;;;;;;;1.75;1.00;;;;;;;8.77;75.90;97818.34;4969560;28;20155;-70
2023/01/05 05:06:25;;;;;;;3.20;1.40;;;;;;;8.76;75.81;97830.41;4967974;28;20038;-69
2023/01/05 05:08:50;;;;;;;2.83;1.55;;;;;;;8.76;75.55;97820.28;4969385;28;20030;-69
2023/01/05 05:11:15;;;;;;;3.20;1.63;;;;;;;8.78;75.81;97814.50;4969112;28;20027;-69
2023/01/05 05:13:41;;;;;;;1.50;1.17;;;;;;;8.79;75.61;97822.41;4969320;28;20398;-69
2023/01/05 05:16:06;;;;;;;3.08;1.70;;;;;;;8.80;76.27;97817.75;4968025;28;20023;-68
2023/01/05 05:18:32;;;;;;;2.55;1.63;;;;;;;8.79;75.95;97824.31;4967605;28;20462;-69
2023/01/05 05:20:57;;;;;;;1.40;1.20;;;;;;;8.77;75.97;97827.38;4969853;28;20109;-69
2023/01/05 05:23:23;;;;;;;1.58;1.13;;;;;;;8.78;75.80;97822.69;4971382;28;20490;-68
2023/01/05 05:25:50;;;;;;;2.17;1.50;;;;;;;8.77;76.08;97829.28;4969150;28;20130;-69
2023/01/05 05:28:15;;;;;;;1.63;1.10;;;;;;;8.76;76.16;97820.28;4968390;28;20027;-68
2023/01/05 05:30:41;;;;;;;1.73;1.15;;;;;;;8.75;75.86;97831.53;4969186;28;20031;-68
2023/01/05 05:33:06;;;;;;;1.83;1.10;;;;;;;8.73;76.35;97815.41;4967351;28;20082;-68
2023/01/05 05:35:31;;;;;;;3.38;2.20;;;;;;;8.73;76.25;97806.41;4968809;28;20416;-68
2023/01/05 05:37:57;;;;;;;3.47;1.80;;;;;;;8.72;76.68;97821.19;4969265;28;20116;-68
2023/01/05 05:40:23;;;;;;;2.38;1.45;;;;;;;8.71;76.63;97828.56;4969708;28;20039;-69
2023/01/05 05:42:48;;;;;;;2.53;1.83;;;;;;;8.70;76.50;97826.16;4969646;28;20045;-68
2023/01/05 05:45:14;;;;;;;3.75;2.05;;;;;;;8.69;76.57;97844.44;4967988;28;20062;-68
2023/01/05 05:47:39;;;;;;;3.22;2.40;;;;;;;8.70;76.31;97840.59;4968538;28;20065;-68
2023/01/05 05:50:05;;;;;;;4.30;1.95;;;;;;;8.71;76.88;97836.75;4967291;28;20026;-68
2023/01/05 05:52:30;;;;;;;3.78;2.60;;;;;;;8.71;76.66;97839.50;4969170;28;20535;-67
2023/01/05 05:54:56;;;;;;;4.88;2.20;;;;;;;8.71;76.77;97828.56;4968255;28;20683;-68
2023/01/05 05:57:21;;;;;;;5.55;3.00;;;;;;;8.68;77.25;97817.44;4971501;28;20058;-68
2023/01/05 05:59:46;;;;;;;5.00;2.47;;;;;;;8.64;77.44;97823.50;4969463;28;20049;-69
2023/01/05 06:02:12;;;;;;;5.03;3.67;;;;;;;8.62;77.07;97822.97;4970182;28;20106;-68
2023/01/05 06:04:37;;;;;;;4.90;2.60;;;;;;;8.60;77.61;97830.66;4976312;28;20032;-69
2023/01/05 06:07:02;;;;;;;4.40;2.40;;;;;;;8.59;77.42;97826.31;4965008;28;20088;-69
2023/01/05 06:09:28;;;;;;;5.32;2.55;;;;;;;8.58;77.69;97823.84;4969585;28;20490;-69
2023/01/05 06:11:53;;;;;;;4.63;2.95;;;;;;;8.55;77.24;97819.00;4968276;28;20031;-68
2023/01/05 06:14:19;;;;;;;6.90;3.58;;;;;;;8.56;77.54;97820.63;4967408;28;20104;-67
2023/01/05 06:16:44;;;;;;;4.32;2.75;;;;;;;8.56;77.43;97826.91;4969638;28;20038;-68
2023/01/05 06:19:10;;;;;;;6.78;2.60;;;;;;;8.57;77.43;97833.16;4968014;28;20441;-68
2023/01/05 06:21:35;;;;;;;5.15;2.90;;;;;;;8.56;77.53;97829.63;4968248;28;20100;-68
2023/01/05 06:24:00;;;;;;;6.32;2.70;;;;;;;8.55;76.93;97827.22;4998922;28;20074;-68
2023/01/05 06:26:26;;;;;;;5.30;2.58;;;;;;;8.55;77.31;97832.69;5005020;28;20031;-67
2023/01/05 06:28:51;;;;;;;5.93;3.65;;;;;;;8.56;77.40;97828.84;4967670;28;20078;-68
2023/01/05 06:31:17;;;;;;;12.35;4.57;;;;;;;8.56;77.03;97832.38;4966152;28;20483;-68
2023/01/05 06:33:42;;;;;;;5.53;3.15;;;;;;;8.54;77.33;97831.84;4968751;28;20188;-68
2023/01/05 06:36:07;;;;;;;12.77;6.28;;;;;;;8.56;77.21;97834.31;4990248;28;20055;-68
2023/01/05 06:38:33;;;;;;;6.70;3.25;;;;;;;8.53;77.54;97835.69;4974141;28;20092;-69
2023/01/05 06:40:58;;;;;;;12.38;5.47;;;;;;;8.53;77.62;97840.38;4966673;28;20027;-68
2023/01/05 06:43:24;;;;;;;6.15;3.20;;;;;;;8.54;77.63;97842.78;4969513;28;20115;-68
2023/01/05 06:45:49;;;;;;;6.60;3.03;;;;;;;8.55;77.45;97851.81;4968856;28;20438;-69
2023/01/05 06:48:15;;;;;;;8.13;3.08;;;;;;;8.55;77.74;97849.06;4968850;28;20037;-68
2023/01/05 06:50:40;;;;;;;10.95;4.60;;;;;;;8.55;77.65;97877.22;4968449;28;20042;-68
2023/01/05 06:53:05;;;;;;;12.45;4.78;;;;;;;8.58;77.22;97914.88;4967554;28;20476;-68
2023/01/05 06:55:31;;;;;;;14.07;5.60;;;;;;;8.57;77.31;97924.19;4968266;28;20066;-68
2023/01/05 06:57:56;;;;;;;11.70;5.30;;;;;;;8.56;77.61;97936.22;4969121;28;20033;-67
2023/01/05 07:00:22;;;;;;;6.07;2.55;;;;;;;8.52;77.89;97931.66;4973688;28;20121;-68
2023/01/05 07:02:47;;;;;;;5.40;2.40;;;;;;;8.45;77.76;97930.06;4969075;28;20038;-68
2023/01/05 07:05:13;;;;;;;10.32;4.82;;;;;;;8.39;78.02;97930.41;4969268;28;20035;-68
2023/01/05 07:07:38;;;;;;;21.17;7.80;;;;;;;8.36;77.54;97940.03;4966944;28;20084;-68
2023/01/05 07:10:04;;;;;;;15.68;5.40;;;;;;;8.30;77.70;97942.03;4984603;28;20057;-68
2023/01/05 07:12:30;;;;;;;23.95;7.90;;;;;;;8.24;78.04;97954.13;4969276;28;20046;-67
2023/01/05 07:14:55;;;;;;;22.13;7.57;;;;;;;8.14;78.22;97967.91;4970767;28;20031;-68
2023/01/05 07:17:21;;;;;;;12.60;5.22;;;;;;;8.09;78.48;97973.44;4988214;28;20074;-68
2023/01/05 07:19:46;;;;;;;8.52;4.15;;;;;;;7.98;77.93;97981.75;4989078;28;20035;-68
2023/01/05 07:22:11;;;;;;;8.15;3.60;;;;;;;7.92;78.91;97973.91;4966646;28;20620;-68
2023/01/05 07:24:37;;;;;;;2.90;1.55;;;;;;;7.78;78.67;97979.25;4997757;28;20032;-68
2023/01/05 07:27:02;;;;;;;3.20;1.38;;;;;;;7.67;78.77;97997.66;5063060;28;20404;-68
2023/01/05 07:29:28;;;;;;;4.35;1.85;;;;;;;7.60;78.97;97973.41;5031647;28;20162;-67
2023/01/05 07:31:53;;;;;;;4.30;1.67;;;;;;;7.54;79.36;97966.41;5037856;28;20666;-67
2023/01/05 07:34:20;;;;;;;2.70;1.20;;;;;;;7.49;79.63;97966.47;4986312;28;20097;-67
2023/01/05 07:36:46;;;;;;;2.38;1.45;;;;;;;7.45;79.39;97958.00;5066015;28;20024;-69
2023/01/05 07:39:11;;;;;;;3.35;1.20;;;;;;;7.43;79.07;97974.69;4977246;28;20023;-68
2023/01/05 07:41:37;;;;;;;1.95;0.80;;;;;;;7.40;79.43;97964.34;5066898;28;20400;-69
2023/01/05 07:44:02;;;;;;;2.92;0.60;;;;;;;7.38;79.28;97931.09;5068654;28;20503;-68
2023/01/05 07:46:28;;;;;;;3.22;1.40;;;;;;;7.36;79.40;97948.81;4985767;28;20046;-68
2023/01/05 07:48:53;;;;;;;1.80;0.73;;;;;;;7.37;79.19;97953.19;4967457;28;20019;-69
2023/01/05 07:51:18;;;;;;;1.65;0.95;;;;;;;7.36;79.45;97948.81;4966733;28;20027;-69
2023/01/05 07:53:44;;;;;;;1.15;0.70;;;;;;;7.36;79.20;97959.75;4999412;28;20031;-69
2023/01/05 07:56:11;;;;;;;1.90;0.52;;;;;;;7.35;79.69;97955.38;5019699;28;20050;-67
2023/01/05 07:58:36;;;;;;;0.85;0.80;;;;;;;7.34;79.50;97960.03;4992740;28;20600;-68
2023/01/05 08:01:04;;;;;;;0.77;0.63;;;;;;;7.32;79.59;97945.88;4963698;28;20049;-68
2023/01/05 08:03:29;;;;;;;0.75;0.47;;;;;;;7.30;79.31;97953.53;4962862;28;20038;-68
2023/01/05 08:05:55;;;;;;;1.38;0.88;;;;;;;7.29;79.32;97952.72;4970406;28;20550;-68
2023/01/05 08:08:20;;;;;;;0.73;0.50;;;;;;;7.30;79.07;97950.81;5049180;28;20029;-69
2023/01/05 08:10:46;;;;;;;1.58;0.90;;;;;;;7.30;79.38;97946.16;5005306;28;20037;-68
2023/01/05 08:14:11;;;;;;;1.08;0.70;;;;;;;7.32;78.91;97937.69;4970386;28;20023;-68
2023/01/05 08:16:06;;;;;;;3.28;1.58;;;;;;;7.31;79.53;97949.69;4982282;28;20030;-69
2023/01/05 08:18:31;;;;;;;2.63;1.27;;;;;;;7.31;79.54;97949.69;4995390;28;20035;-69
2023/01/05 08:21:03;;;;;;;5.18;1.40;;;;;;;7.34;79.40;97953.75;4985121;28;20495;-69
2023/01/05 08:23:29;;;;;;;4.82;1.50;;;;;;;7.34;79.83;97956.47;4997974;28;20030;-69
2023/01/05 08:25:55;;;;;;;3.30;1.40;;;;;;;7.33;79.59;97957.63;5025611;28;20036;-70
2023/01/05 08:28:21;;;;;;;4.25;2.00;;;;;;;7.33;79.39;97960.34;5070790;28;20024;-69
2023/01/05 08:30:46;;;;;;;7.07;3.38;;;;;;;7.37;79.65;97954.00;5059460;28;20035;-68
2023/01/05 08:33:12;;;;;;;3.00;1.30;;;;;;;7.40;79.33;97955.34;4997509;28;20043;-68
2023/01/05 08:35:42;;;;;;;3.78;1.75;;;;;;;7.40;79.35;97958.91;4969808;28;20387;-66
2023/01/05 08:38:07;;;;;;;;;;;;;;;7.46;79.58;97962.38;4994715;28;20395;-68
2023/01/05 08:40:34;;;;;;;2.03;1.33;;;;;;;7.53;79.28;97951.13;5002152;28;19924;-68
2023/01/05 08:42:59;;;;;;;2.67;1.35;;;;;;;7.56;79.58;97954.09;4988647;28;20037;-68
2023/01/05 08:45:24;;;;;;;3.13;2.00;;;;;;;7.60;79.60;97952.41;4968861;28;20031;-67
2023/01/05 08:47:50;;;;;;;3.58;1.67;;;;;;;7.65;79.28;97970.66;4968375;28;20031;-69
2023/01/05 08:50:16;;;;;;;1.52;1.20;;;;;;;7.70;79.57;97956.94;4967955;28;20125;-69
2023/01/05 08:52:41;;;;;;;1.67;1.05;;;;;;;7.77;79.50;97958.53;4968740;28;20109;-69
2023/01/05 08:55:07;;;;;;;1.50;1.08;;;;;;;7.82;79.28;97955.72;4967065;28;20410;-69
2023/01/05 08:57:33;;;;;;;2.53;1.10;;;;;;;7.88;79.15;97957.31;4967702;28;20030;-68
2023/01/05 08:59:58;;;;;;;2.13;1.50;;;;;;;7.92;79.13;97957.53;4968703;28;20068;-68
2023/01/05 09:02:24;;;;;;;2.58;0.90;;;;;;;7.96;79.54;97959.38;4971649;28;20380;-69
2023/01/05 09:04:49;;;;;;;2.28;1.20;;;;;;;8.00;78.89;97954.97;4997762;28;20031;-69
2023/01/05 09:07:15;;;;;;;3.22;1.17;;;;;;;8.02;79.21;97952.75;4995876;28;20111;-69
2023/01/05 09:09:40;;;;;;;3.05;1.20;;;;;;;8.05;79.06;97946.69;4984032;28;20605;-69
2023/01/05 09:12:06;;;;;;;2.72;1.23;;;;;;;8.09;78.85;97948.84;4967102;28;20398;-70
2023/01/05 09:14:31;;;;;;;2.50;1.20;;;;;;;8.11;79.10;97952.09;4968434;28;20501;-71
2023/01/05 09:16:56;;;;;;;1.80;1.20;;;;;;;8.11;79.15;97944.75;4966576;28;20066;-70
2023/01/05 09:19:22;;;;;;;2.40;1.23;;;;;;;8.13;79.33;97939.81;4968354;28;20081;-70
2023/01/05 09:21:47;;;;;;;2.55;1.50;;;;;;;8.18;78.79;97956.09;4968499;28;20039;-71
2023/01/05 09:24:13;;;;;;;2.63;1.60;;;;;;;8.23;78.87;97941.59;4966363;28;20236;-71
2023/01/05 09:26:40;;;;;;;4.57;1.85;;;;;;;8.25;79.19;97939.38;4968316;28;20031;-69
2023/01/05 09:29:05;;;;;;;5.45;2.50;;;;;;;8.30;79.36;97941.22;4972245;28;20041;-68
2023/01/05 09:31:31;;;;;;;6.20;2.78;;;;;;;8.34;78.63;97934.88;4968403;28;20326;-68
2023/01/05 09:33:57;;;;;;;4.40;2.40;;;;;;;8.40;78.11;97929.31;4972083;28;20027;-69
2023/01/05 09:36:24;;;;;;;5.78;2.47;;;;;;;8.42;79.08;97927.09;4967112;28;20494;-69
2023/01/05 09:38:52;;;;;;;6.75;3.30;;;;;;;8.45;78.27;97926.50;4961133;28;20046;-69
2023/01/05 09:41:32;;;;;;;6.47;3.00;;;;;;;8.51;78.30;97933.56;4964007;28;20035;-69
2023/01/05 09:44:04;;;;;;;3.95;2.17;;;;;;;8.55;79.13;97929.13;5007229;28;20606;-68
2023/01/05 09:46:35;;;;;;;3.50;2.40;;;;;;;8.62;77.95;97931.50;4966325;28;20087;-68
2023/01/05 09:49:03;;;;;;;5.47;2.63;;;;;;;8.66;77.83;97931.72;4970692;28;20398;-68
2023/01/05 09:51:29;;;;;;;7.43;3.60;;;;;;;8.66;77.91;97932.53;4964953;28;20496;-68
2023/01/05 09:53:55;;;;;;;9.65;4.63;;;;;;;8.67;77.80;97934.16;5009593;28;20036;-68
2023/01/05 09:56:25;;;;;;;4.63;2.53;;;;;;;8.66;77.74;97931.72;5020803;28;1183223;-68
2023/01/05 09:58:55;;;;;;;3.42;1.30;;;;;;;8.62;77.35;97928.75;4969850;28;20066;-69
2023/01/05 10:01:21;;;;;;;;;;;;;;;8.62;77.52;97926.84;4969546;28;20027;-68
2023/01/05 10:03:56;;;;;;;3.70;1.73;;;;;;;8.63;77.32;97920.28;4969485;28;19940;-68
2023/01/05 10:06:28;;;;;;;7.95;7.15;;;;;;;8.67;77.09;97931.41;4969514;28;20466;-68
2023/01/05 10:08:55;;;;;;;5.28;2.50;;;;;;;8.68;77.50;97927.56;4970219;28;20376;-68
2023/01/05 10:14:20;;;;;;;3.67;1.75;;;;;;;8.73;76.74;97922.03;4985811;28;20576;-68
2023/01/05 10:16:45;;;;;;;4.03;1.70;;;;;;;8.77;76.53;97925.81;4973453;28;20494;-70
2023/01/05 10:19:17;;;;;;;6.00;2.38;;;;;;;8.82;77.14;97915.91;5009689;28;20027;-69
2023/01/05 10:22:03;;;;;;;5.63;2.22;;;;;;;8.89;76.60;97921.81;4969981;28;20033;-71
2023/01/05 10:24:54;;;;;;;3.58;1.80;;;;;;;9.02;76.66;97912.81;4976413;28;20784;-70
2023/01/05 10:27:25;;;;;;;4.43;1.77;;;;;;;9.14;76.15;97917.00;4969854;28;20134;-70
2023/01/05 10:30:22;;;;;;;3.63;1.60;;;;;;;9.26;76.05;97922.00;5015849;28;20029;-71
2023/01/05 10:33:02;;;;;;;6.05;1.55;;;;;;;9.35;75.89;97925.66;5010563;28;20054;-70
2023/01/05 10:35:47;;;;;;;1.80;1.00;;;;;;;9.44;74.83;97915.66;4969596;28;20357;-70
2023/01/05 10:38:28;;;;;;;3.50;1.30;;;;;;;9.49;74.72;97904.59;4969732;28;20079;-70
2023/01/05 10:41:20;;;;;;;3.53;1.40;;;;;;;9.57;74.72;97916.78;4966693;28;20084;-69
2023/01/05 10:44:20;;;;;;;2.72;1.33;;;;;;;9.65;74.71;97915.25;4969237;28;20030;-70
2023/01/05 10:46:47;;;;;;;;;;;;;;;9.72;73.50;97915.66;4967672;28;20023;-70
2023/01/05 10:49:20;;;;;;;3.45;1.60;;;;;;;9.76;72.65;97915.88;4969441;28;19968;-70
2023/01/05 10:51:46;;;;;;;4.43;1.42;;;;;;;9.78;72.89;97908.19;4969194;28;20042;-70
2023/01/05 10:54:34;;;;;;;3.42;1.40;;;;;;;9.79;72.55;97910.59;4969146;28;20057;-71
2023/01/05 10:57:27;;;;;;;3.45;1.42;;;;;;;9.85;71.89;97915.97;4976558;28;20050;-70
2023/01/05 10:59:58;;;;;;;3.70;1.75;;;;;;;9.87;72.60;97911.81;4992679;28;20036;-70
2023/01/05 11:02:27;;;;;;;3.80;1.33;;;;;;;9.92;71.51;97911.69;5070160;28;20024;-70
2023/01/05 11:04:54;;;;;;;4.05;1.35;;;;;;;9.95;70.43;97907.56;5069797;28;20028;-71
2023/01/05 11:07:20;;;;;;;3.97;1.40;;;;;;;10.00;70.20;97918.38;4984135;28;20037;-70
2023/01/05 11:09:47;;;;;;;4.00;1.50;;;;;;;10.06;71.16;97900.72;4969253;28;20037;-70
2023/01/05 11:12:22;;;;;;;4.75;1.60;;;;;;;10.13;70.51;97914.81;4969294;28;20037;-70
2023/01/05 11:14:53;;;;;;;3.55;1.17;;;;;;;10.22;69.81;97908.63;4969152;28;20141;-71
2023/01/05 11:17:22;;;;;;;3.53;1.20;;;;;;;10.30;70.23;97899.69;4969415;28;20031;-70
2023/01/05 11:19:54;;;;;;;4.72;1.42;;;;;;;10.39;69.52;97903.31;4966704;28;20027;-70
2023/01/05 11:22:30;;;;;;;3.65;1.45;;;;;;;10.46;69.56;97902.09;4968368;28;20062;-70
2023/01/05 11:25:20;;;;;;;1.90;1.00;;;;;;;10.47;67.99;97910.03;4968493;28;20054;-71
2023/01/05 11:27:45;;;;;;;3.00;1.10;;;;;;;10.48;67.49;97895.19;4968827;28;20027;-71
2023/01/05 11:30:13;;;;;;;4.45;1.50;;;;;;;10.52;68.07;97901.69;4968361;28;20451;-71
2023/01/05 11:32:43;;;;;;;4.75;1.27;;;;;;;10.57;67.94;97895.25;4967183;28;20023;-72
2023/01/05 11:35:19;;;;;;;2.78;1.00;;;;;;;10.61;68.23;97892.69;5023072;28;20066;-71
2023/01/05 11:37:45;;;;;;;3.65;1.27;;;;;;;10.65;65.50;97910.97;5069519;28;20024;-71
2023/01/05 11:40:17;;;;;;;4.55;2.00;;;;;;;10.67;66.26;97900.50;5069640;28;20116;-70
2023/01/05 11:42:43;;;;;;;4.32;1.50;;;;;;;10.68;66.09;97899.41;5005920;28;20050;-71
2023/01/05 11:45:28;;;;;;;4.18;1.20;;;;;;;10.64;66.25;97903.03;5043322;28;20064;-71
2023/01/05 11:47:57;;;;;;;4.28;1.67;;;;;;;10.64;64.81;97911.28;5068927;28;20025;-70
2023/01/05 11:50:30;;;;;;;3.38;1.52;;;;;;;10.63;65.35;97907.72;5069223;28;20020;-71
2023/01/05 11:52:58;;;;;;;3.42;1.40;;;;;;;10.64;65.40;97912.09;4983454;28;20031;-71
2023/01/05 11:55:37;;;;;;;1.70;1.00;;;;;;;10.65;64.11;97916.47;5051846;28;20109;-71
2023/01/05 11:58:21;;;;;;;5.70;1.45;;;;;;;10.64;63.74;97908.53;5068986;28;20389;-71
2023/01/05 12:01:09;;;;;;;2.03;0.88;;;;;;;10.62;62.36;97911.59;5069869;28;20020;-71
2023/01/05 12:03:53;;;;;;;2.20;1.00;;;;;;;10.59;62.88;97909.47;5070056;28;20504;-70
2023/01/05 12:06:34;;;;;;;4.18;1.42;;;;;;;10.59;62.58;97914.16;5009906;28;20045;-71
2023/01/05 12:09:23;;;;;;;3.45;1.40;;;;;;;10.57;63.77;97915.28;4967610;28;20027;-70
2023/01/05 12:12:15;;;;;;;9.70;3.83;;;;;;;10.57;63.54;97908.97;4968169;28;20023;-71
2023/01/05 12:14:49;;;;;;;4.82;1.63;;;;;;;10.56;63.27;97932.84;5041431;28;20037;-70
2023/01/05 12:17:25;;;;;;;2.53;1.50;;;;;;;10.57;62.80;97929.00;5068906;28;20035;-70
2023/01/05 12:20:17;;;;;;;3.15;1.40;;;;;;;10.56;63.37;97916.41;4990215;28;20030;-71
2023/01/05 12:22:58;;;;;;;3.55;1.58;;;;;;;10.55;62.13;97917.53;4966495;28;20035;-71